Time;durP1;ratioP1;P1;durP2;ratioP2;P2;SDS_P1;SDS_P2;PMS_P1;PMS_P2;Temp;Humidity;BMP_temperature;BMP_pressure;BME280_temperature;BME280_humidity;BME280_pressure;Samples;Min_cycle;Max_cycle;Signal;HPM_P1;HPM_P2
2022/07/21 00:01:04;;;;;;;1.40;1.40;;;;;;;23.65;54.02;100466.75;5071149;28;20175;-73
2022/07/21 00:03:30;;;;;;;1.97;1.47;;;;;;;23.60;54.45;100458.00;5071073;28;20163;-73
2022/07/21 00:05:55;;;;;;;1.60;1.17;;;;;;;23.59;54.67;100448.84;5070993;28;20202;-74
2022/07/21 00:08:20;;;;;;;1.10;0.70;;;;;;;23.53;54.95;100436.44;5069444;28;20859;-73
2022/07/21 00:10:46;;;;;;;0.93;0.93;;;;;;;23.50;55.11;100437.25;5071268;28;20570;-73
2022/07/21 00:13:12;;;;;;;2.20;2.00;;;;;;;23.45;55.49;100430.09;5071030;28;20509;-73
2022/07/21 00:15:37;;;;;;;0.73;0.73;;;;;;;23.42;55.81;100438.44;5069659;28;20315;-73
2022/07/21 00:18:03;;;;;;;0.60;0.60;;;;;;;23.37;56.12;100433.25;5070392;28;20220;-73
2022/07/21 00:20:30;;;;;;;4.00;2.03;;;;;;;23.33;56.47;100443.63;5070887;28;20175;-74
2022/07/21 00:22:55;;;;;;;0.30;0.30;;;;;;;23.35;56.56;100441.22;5070879;28;20167;-74
2022/07/21 00:25:21;;;;;;;0.90;0.90;;;;;;;23.37;56.83;100447.22;5069433;28;20210;-73
2022/07/21 00:27:46;;;;;;;1.93;1.73;;;;;;;23.35;57.02;100457.97;5069441;28;20216;-73
2022/07/21 00:30:12;;;;;;;2.10;1.93;;;;;;;23.34;56.90;100479.47;5070374;28;20666;-73
2022/07/21 00:32:38;;;;;;;0.07;0.07;;;;;;;23.37;57.30;100494.63;5069759;28;20201;-74
2022/07/21 00:35:05;;;;;;;0.40;0.40;;;;;;;23.37;57.02;100502.97;5069421;28;20178;-74
2022/07/21 00:37:31;;;;;;;0.70;0.70;;;;;;;23.37;57.33;100494.63;5069610;28;20181;-73
2022/07/21 00:39:56;;;;;;;1.70;1.60;;;;;;;23.34;57.67;100509.34;5069252;28;20187;-73
2022/07/21 00:42:28;;;;;;;0.13;0.13;;;;;;;23.30;57.78;100508.56;5069470;28;20236;-73
2022/07/21 00:44:54;;;;;;;1.80;1.70;;;;;;;23.33;57.93;100513.34;5069242;28;20182;-74
2022/07/21 00:47:23;;;;;;;1.53;1.47;;;;;;;23.29;58.18;100518.91;5069061;28;20711;-74
2022/07/21 00:49:49;;;;;;;1.50;1.40;;;;;;;23.25;57.94;100518.09;5070342;28;20201;-74
2022/07/21 00:52:16;;;;;;;2.90;1.77;;;;;;;23.23;58.69;100516.91;5070790;28;20166;-74
2022/07/21 00:54:42;;;;;;;0.93;0.93;;;;;;;23.17;58.92;100518.50;5070590;28;20661;-73
2022/07/21 00:57:08;;;;;;;1.30;1.30;;;;;;;23.13;59.39;100518.47;5070453;28;20273;-74
2022/07/21 00:59:33;;;;;;;0.77;0.77;;;;;;;23.07;59.75;100518.06;5069959;28;20265;-74
2022/07/21 01:01:59;;;;;;;1.50;1.50;;;;;;;23.03;61.24;100513.69;5069092;28;20266;-74
2022/07/21 01:04:26;;;;;;;3.47;3.37;;;;;;;22.98;63.03;100497.31;5069244;28;20269;-73
2022/07/21 01:06:53;;;;;;;1.37;0.87;;;;;;;22.94;64.62;100500.09;5068870;28;20218;-74
2022/07/21 01:09:22;;;;;;;0.10;0.10;;;;;;;22.92;66.30;100501.69;5068838;28;20181;-74
2022/07/21 01:11:47;;;;;;;2.73;1.20;;;;;;;22.90;67.01;100496.53;5069133;28;20532;-74
2022/07/21 01:14:13;;;;;;;0.37;0.37;;;;;;;22.83;67.67;100493.69;5069171;28;20201;-74
2022/07/21 01:16:43;;;;;;;0.00;0.00;;;;;;;22.81;68.02;100479.34;5070348;28;20183;-74
2022/07/21 01:19:08;;;;;;;3.03;1.03;;;;;;;22.68;69.08;100458.59;5070039;28;20212;-74
2022/07/21 01:21:36;;;;;;;0.43;0.43;;;;;;;22.62;70.45;100447.06;5070456;28;20665;-74
2022/07/21 01:24:03;;;;;;;0.00;0.00;;;;;;;22.65;70.85;100462.19;5069337;28;20590;-74
2022/07/21 01:26:29;;;;;;;0.00;0.00;;;;;;;22.68;71.03;100470.53;5068869;28;20560;-74
2022/07/21 01:28:56;;;;;;;0.00;0.00;;;;;;;22.66;70.83;100472.94;5069652;28;20181;-74
2022/07/21 01:31:21;;;;;;;0.10;0.10;;;;;;;22.66;71.13;100474.91;5070530;28;20205;-72
2022/07/21 01:33:47;;;;;;;0.00;0.00;;;;;;;22.63;71.46;100461.78;5071254;28;20227;-72
2022/07/21 01:36:12;;;;;;;0.80;0.80;;;;;;;22.55;72.12;100463.72;5069938;28;20182;-73
2022/07/21 01:41:34;;;;;;;0.30;0.30;;;;;;;22.21;73.99;100474.31;5070625;28;20215;-72
2022/07/21 01:44:05;;;;;;;0.07;0.07;;;;;;;22.14;74.26;100440.91;5070342;28;20244;-72
2022/07/21 01:46:34;;;;;;;0.10;0.10;;;;;;;22.07;74.82;100419.38;5070133;28;20708;-74
2022/07/21 01:48:59;;;;;;;0.00;0.00;;;;;;;22.05;75.03;100435.69;5068665;28;20174;-72
2022/07/21 01:51:25;;;;;;;1.43;1.07;;;;;;;22.03;75.52;100465.84;5069865;28;20186;-72
2022/07/21 01:53:52;;;;;;;0.17;0.17;;;;;;;21.92;76.11;100446.31;5070065;28;20172;-72
2022/07/21 01:56:26;;;;;;;0.10;0.10;;;;;;;21.87;76.43;100418.88;5071183;28;20177;-73
2022/07/21 01:58:54;;;;;;;0.73;0.73;;;;;;;21.80;77.06;100448.59;5072658;28;20637;-73
2022/07/21 02:01:22;;;;;;;0.10;0.10;;;;;;;21.71;78.08;100474.00;5072183;28;20174;-73
2022/07/21 02:03:48;;;;;;;0.30;0.30;;;;;;;21.68;79.69;100464.41;5073538;28;20179;-72
2022/07/21 02:06:13;;;;;;;0.20;0.20;;;;;;;21.62;80.54;100465.97;5072159;28;20224;-73
2022/07/21 02:08:42;;;;;;;0.53;0.53;;;;;;;21.48;83.21;100465.06;5072921;28;20662;-72
2022/07/21 02:11:09;;;;;;;0.30;0.30;;;;;;;21.28;85.07;100450.63;5071946;28;20183;-73
2022/07/21 02:13:34;;;;;;;0.20;0.20;;;;;;;21.16;86.83;100442.53;5073279;28;20412;-72
2022/07/21 02:16:00;;;;;;;0.40;0.40;;;;;;;21.10;88.25;100433.72;5073237;28;20362;-73
2022/07/21 02:18:25;;;;;;;0.20;0.20;;;;;;;20.98;90.75;100418.16;5072635;28;20178;-72
2022/07/21 02:20:51;;;;;;;0.00;0.00;;;;;;;20.93;91.82;100409.34;5073152;28;20183;-73
2022/07/21 02:23:17;;;;;;;0.00;0.00;;;;;;;20.83;91.32;100407.28;5073136;28;20209;-75
2022/07/21 02:25:43;;;;;;;0.43;0.43;;;;;;;20.74;92.47;100399.25;5071684;28;20214;-73
2022/07/21 02:28:10;;;;;;;8.20;0.70;;;;;;;20.63;93.32;100401.94;5071242;28;20274;-75
2022/07/21 02:30:35;;;;;;;0.37;0.37;;;;;;;20.52;94.05;100425.19;5072833;28;20289;-73
2022/07/21 02:33:01;;;;;;;0.00;0.00;;;;;;;20.43;96.00;100442.16;5072925;28;20635;-74
2022/07/21 02:35:26;;;;;;;0.00;0.00;;;;;;;20.35;96.23;100480.06;5072937;28;20181;-73
2022/07/21 02:37:52;;;;;;;0.60;0.60;;;;;;;20.31;96.81;100482.00;5072506;28;20211;-74
2022/07/21 02:40:17;;;;;;;0.20;0.20;;;;;;;20.27;96.80;100499.78;5072350;28;20181;-75
2022/07/21 02:42:42;;;;;;;0.10;0.10;;;;;;;20.24;96.57;100503.28;5071406;28;20535;-75
2022/07/21 02:45:09;;;;;;;0.17;0.17;;;;;;;20.27;96.35;100497.81;5072466;28;20185;-75
2022/07/21 02:47:58;;;;;;;0.30;0.30;;;;;;;20.28;96.72;100466.13;5072385;28;20231;-75
2022/07/21 02:50:26;;;;;;;0.00;0.00;;;;;;;20.31;96.90;100448.72;5072178;28;20644;-73
2022/07/21 02:52:57;;;;;;;1.07;1.07;;;;;;;20.25;97.61;100436.31;5071150;28;20253;-75
2022/07/21 02:55:23;;;;;;;1.43;1.33;;;;;;;20.19;97.15;100435.88;5072566;28;20179;-74
2022/07/21 02:57:48;;;;;;;0.00;0.00;;;;;;;20.23;95.81;100430.34;5070231;28;20172;-74
2022/07/21 03:00:14;;;;;;;1.33;0.23;;;;;;;20.28;96.75;100432.03;5072117;28;20222;-75
2022/07/21 03:02:39;;;;;;;0.00;0.00;;;;;;;20.31;95.29;100420.16;5071008;28;20176;-74
2022/07/21 03:05:05;;;;;;;0.10;0.10;;;;;;;20.38;93.67;100420.22;5070813;28;20244;-74
2022/07/21 03:07:31;;;;;;;0.00;0.00;;;;;;;20.44;92.65;100407.66;5070921;28;20254;-75
2022/07/21 03:09:56;;;;;;;11.33;2.67;;;;;;;20.50;92.91;100406.13;5071700;28;20177;-75
2022/07/21 03:12:21;;;;;;;0.00;0.00;;;;;;;20.49;93.25;100376.78;5070843;28;20174;-76
2022/07/21 03:14:47;;;;;;;0.20;0.20;;;;;;;20.65;93.02;100394.00;5071992;28;20184;-75
2022/07/21 03:17:12;;;;;;;0.00;0.00;;;;;;;20.70;92.37;100415.91;5070591;28;20266;-75
2022/07/21 03:19:38;;;;;;;0.00;0.00;;;;;;;20.75;91.75;100418.31;5071805;28;20228;-75
2022/07/21 03:22:03;;;;;;;0.00;0.00;;;;;;;20.87;91.91;100403.38;5070753;28;20229;-73
2022/07/21 03:24:29;;;;;;;0.00;0.00;;;;;;;20.66;90.48;100397.59;5071915;28;20641;-75
2022/07/21 03:26:55;;;;;;;0.10;0.10;;;;;;;20.83;90.38;100398.94;5071643;28;20213;-75
2022/07/21 03:29:21;;;;;;;0.00;0.00;;;;;;;20.83;90.15;100410.03;5071501;28;20174;-74
2022/07/21 03:31:46;;;;;;;0.30;0.30;;;;;;;20.75;90.32;100423.06;5070464;28;20201;-75
2022/07/21 03:34:12;;;;;;;0.37;0.37;;;;;;;20.63;91.33;100443.56;5071780;28;20193;-75
2022/07/21 03:36:37;;;;;;;1.70;1.17;;;;;;;20.52;92.90;100452.94;5070099;28;20542;-74
2022/07/21 03:39:02;;;;;;;1.37;0.80;;;;;;;20.43;94.22;100459.59;5071388;28;20506;-75
2022/07/21 03:41:28;;;;;;;0.67;0.67;;;;;;;20.33;95.03;100464.97;5071504;28;20556;-75
2022/07/21 03:43:53;;;;;;;0.47;0.47;;;;;;;20.30;95.23;100452.66;5071481;28;20181;-74
2022/07/21 03:46:18;;;;;;;0.20;0.20;;;;;;;20.29;95.39;100442.75;5069951;28;20209;-74
2022/07/21 03:48:44;;;;;;;0.00;0.00;;;;;;;20.36;95.48;100419.81;5069722;28;20190;-74
2022/07/21 03:51:09;;;;;;;1.13;0.47;;;;;;;20.42;96.09;100421.13;5069946;28;20215;-75
2022/07/21 03:53:34;;;;;;;1.00;1.00;;;;;;;20.35;97.85;100438.44;5071093;28;20528;-76
2022/07/21 03:56:00;;;;;;;0.80;0.80;;;;;;;20.17;99.82;100451.31;5069977;28;20181;-77
2022/07/21 03:58:26;;;;;;;1.10;1.10;;;;;;;20.06;100.00;100458.66;5070259;28;20168;-76
2022/07/21 04:00:51;;;;;;;5.07;1.53;;;;;;;19.94;100.00;100470.78;5070097;28;20269;-77
2022/07/21 04:03:16;;;;;;;1.17;1.10;;;;;;;19.81;100.00;100478.50;5071185;28;20194;-76
2022/07/21 04:05:43;;;;;;;2.70;2.50;;;;;;;19.78;100.00;100472.91;5069588;28;20749;-75
2022/07/21 04:08:10;;;;;;;0.53;0.53;;;;;;;19.77;100.00;100474.09;5070696;28;20173;-76
2022/07/21 04:10:38;;;;;;;1.23;1.23;;;;;;;19.78;100.00;100479.25;5071039;28;20168;-73
2022/07/21 04:13:05;;;;;;;2.27;2.10;;;;;;;19.77;100.00;100496.28;5071086;28;20183;-76
2022/07/21 04:15:31;;;;;;;2.17;1.70;;;;;;;19.70;100.00;100515.59;5071123;28;20660;-74
2022/07/21 04:17:57;;;;;;;1.77;1.77;;;;;;;19.64;100.00;100514.28;5068941;28;20224;-74
2022/07/21 04:20:23;;;;;;;1.97;1.87;;;;;;;19.62;100.00;100514.66;5070674;28;20206;-73
2022/07/21 04:22:49;;;;;;;3.50;2.37;;;;;;;19.61;100.00;100533.25;5071078;28;20172;-76
2022/07/21 04:25:17;;;;;;;6.70;2.37;;;;;;;19.57;100.00;100540.72;5070729;28;20202;-75
2022/07/21 04:27:42;;;;;;;2.23;2.13;;;;;;;19.54;100.00;100538.69;5070633;28;20194;-73
2022/07/21 04:30:10;;;;;;;2.53;2.33;;;;;;;19.57;100.00;100543.50;5069469;28;20179;-76
2022/07/21 04:32:36;;;;;;;2.73;2.53;;;;;;;19.60;100.00;100551.06;5071074;28;20247;-73
2022/07/21 04:35:02;;;;;;;1.77;1.67;;;;;;;19.60;100.00;100551.06;5070772;28;20265;-75
2022/07/21 04:37:29;;;;;;;21.27;2.10;;;;;;;19.61;100.00;100558.19;5069282;28;20633;-74
2022/07/21 04:39:54;;;;;;;3.47;2.63;;;;;;;19.61;100.00;100563.75;5070494;28;20225;-75
2022/07/21 04:42:19;;;;;;;2.60;2.40;;;;;;;19.59;100.00;100566.09;5070603;28;20223;-75
2022/07/21 04:44:45;;;;;;;1.00;1.00;;;;;;;19.61;100.00;100558.19;5070720;28;20704;-74
2022/07/21 04:47:10;;;;;;;1.93;1.00;;;;;;;19.66;100.00;100542.41;5070334;28;20229;-76
2022/07/21 04:49:35;;;;;;;1.47;1.37;;;;;;;19.67;100.00;100552.34;5070101;28;20168;-74
2022/07/21 04:52:01;;;;;;;1.73;1.63;;;;;;;19.69;100.00;100555.56;5070751;28;20175;-74
2022/07/21 04:54:26;;;;;;;1.10;1.10;;;;;;;19.72;100.00;100546.50;5070583;28;20199;-72
2022/07/21 04:56:51;;;;;;;1.50;1.40;;;;;;;19.70;100.00;100540.53;5069152;28;20189;-74
2022/07/21 04:59:17;;;;;;;0.10;0.10;;;;;;;19.71;100.00;100551.25;5068715;28;20304;-74
2022/07/21 05:01:42;;;;;;;1.33;1.30;;;;;;;19.71;100.00;100542.94;5069196;28;20665;-73
2022/07/21 05:04:08;;;;;;;1.57;1.47;;;;;;;19.67;100.00;100549.56;5069250;28;20287;-73
2022/07/21 05:06:33;;;;;;;0.83;0.83;;;;;;;19.62;100.00;100553.47;5070287;28;20205;-76
2022/07/21 05:08:59;;;;;;;0.83;0.83;;;;;;;19.59;100.00;100552.22;5068780;28;20696;-73
2022/07/21 05:11:25;;;;;;;1.00;0.97;;;;;;;19.59;100.00;100548.66;5070505;28;20202;-74
2022/07/21 05:13:51;;;;;;;1.30;1.20;;;;;;;19.59;100.00;100545.88;5070669;28;20167;-74
2022/07/21 05:16:16;;;;;;;0.83;0.57;;;;;;;19.58;100.00;100545.09;5070443;28;20175;-75
2022/07/21 05:18:42;;;;;;;1.03;1.03;;;;;;;19.64;100.00;100544.78;5068719;28;20174;-74
2022/07/21 05:21:07;;;;;;;0.40;0.40;;;;;;;19.63;100.00;100543.97;5069077;28;20220;-75
2022/07/21 05:23:33;;;;;;;1.83;1.73;;;;;;;19.63;100.00;100551.50;5068937;28;20645;-72
2022/07/21 05:25:58;;;;;;;2.10;2.00;;;;;;;19.63;100.00;100562.56;5069008;28;20201;-74
2022/07/21 05:28:23;;;;;;;3.80;1.83;;;;;;;19.65;100.00;100558.25;5069853;28;20692;-74
2022/07/21 05:30:49;;;;;;;1.57;1.50;;;;;;;19.67;100.00;100563.44;5070899;28;20642;-75
2022/07/21 05:33:14;;;;;;;2.20;1.20;;;;;;;19.69;100.00;100558.34;5074038;28;20778;-74
2022/07/21 05:35:39;;;;;;;0.87;0.77;;;;;;;19.70;100.00;100557.97;5073992;28;20206;-73
2022/07/21 05:38:05;;;;;;;0.50;0.50;;;;;;;19.71;100.00;100569.84;5072290;28;20171;-73
2022/07/21 05:40:30;;;;;;;4.13;2.30;;;;;;;19.70;100.00;100573.81;5072488;28;20232;-75
2022/07/21 05:42:56;;;;;;;1.13;1.13;;;;;;;19.70;100.00;100569.06;5073880;28;20170;-73
2022/07/21 05:45:21;;;;;;;1.27;1.10;;;;;;;19.74;100.00;100569.09;5073692;28;20198;-74
2022/07/21 05:47:46;;;;;;;1.30;1.20;;;;;;;19.76;100.00;100570.34;5073626;28;20179;-75
2022/07/21 05:50:12;;;;;;;5.83;2.13;;;;;;;19.79;100.00;100575.13;5073317;28;20182;-73
2022/07/21 05:52:38;;;;;;;1.17;0.77;;;;;;;19.82;100.00;100571.66;5072286;28;20171;-72
2022/07/21 05:55:04;;;;;;;1.63;1.53;;;;;;;19.86;100.00;100589.13;5073807;28;20487;-74
2022/07/21 05:57:31;;;;;;;0.73;0.73;;;;;;;19.92;100.00;100595.16;5072892;28;20693;-75
2022/07/21 05:59:58;;;;;;;1.03;1.03;;;;;;;19.91;100.00;100602.69;5073200;28;20171;-75
2022/07/21 06:02:24;;;;;;;0.80;0.80;;;;;;;19.96;100.00;100601.56;5072207;28;20641;-73
2022/07/21 06:04:49;;;;;;;5.23;0.97;;;;;;;20.03;100.00;100598.91;5072222;28;20262;-73
2022/07/21 06:07:14;;;;;;;2.00;0.70;;;;;;;20.05;100.00;100596.56;5073214;28;20209;-74
2022/07/21 06:09:40;;;;;;;4.80;1.60;;;;;;;20.09;100.00;100608.50;5072833;28;20175;-76
2022/07/21 06:12:05;;;;;;;1.97;1.77;;;;;;;20.08;100.00;100601.34;5072015;28;20204;-73
2022/07/21 06:14:31;;;;;;;1.40;1.30;;;;;;;20.06;100.00;100614.81;5073330;28;20185;-74
2022/07/21 06:16:56;;;;;;;1.10;1.10;;;;;;;20.06;100.00;100608.47;5073260;28;20171;-73
2022/07/21 06:19:21;;;;;;;0.87;0.83;;;;;;;20.02;100.00;100613.97;5073117;28;20645;-73
2022/07/21 06:21:47;;;;;;;2.53;1.67;;;;;;;20.06;100.00;100623.13;5071804;28;20309;-73
2022/07/21 06:24:13;;;;;;;1.07;1.00;;;;;;;20.01;100.00;100617.91;5071713;28;20606;-72
2022/07/21 06:26:39;;;;;;;1.10;0.80;;;;;;;20.08;100.00;100608.88;5071354;28;20220;-72
2022/07/21 06:29:06;;;;;;;1.43;1.43;;;;;;;20.20;100.00;100609.50;5073034;28;20171;-73
2022/07/21 06:31:31;;;;;;;1.23;1.13;;;;;;;20.28;100.00;100626.25;5073240;28;20612;-73
2022/07/21 06:33:56;;;;;;;0.83;0.83;;;;;;;20.30;100.00;100627.47;5071704;28;20245;-73
2022/07/21 06:36:22;;;;;;;0.30;0.30;;;;;;;20.34;100.00;100631.09;5071522;28;20179;-73
2022/07/21 06:38:47;;;;;;;4.70;1.20;;;;;;;20.34;99.76;100635.84;5072532;28;20586;-73
2022/07/21 06:41:13;;;;;;;1.50;1.40;;;;;;;20.35;99.88;100631.91;5072664;28;20193;-72
2022/07/21 06:43:38;;;;;;;1.43;1.30;;;;;;;20.32;99.10;100639.00;5071552;28;20184;-73
2022/07/21 06:46:04;;;;;;;1.07;1.07;;;;;;;20.28;98.94;100640.13;5071410;28;20567;-73
2022/07/21 06:48:29;;;;;;;1.27;1.17;;;;;;;20.28;98.89;100635.38;5072268;28;20250;-73
2022/07/21 06:50:55;;;;;;;1.07;0.93;;;;;;;20.33;98.30;100628.72;5072625;28;20190;-73
2022/07/21 06:53:21;;;;;;;0.20;0.20;;;;;;;20.41;98.01;100625.72;5072792;28;20643;-73
2022/07/21 06:55:47;;;;;;;0.63;0.50;;;;;;;20.45;97.96;100639.63;5072837;28;20187;-73
2022/07/21 06:58:15;;;;;;;0.80;0.80;;;;;;;20.44;96.94;100638.84;5070458;28;20176;-73
2022/07/21 07:00:41;;;;;;;0.77;0.47;;;;;;;20.47;97.26;100637.28;5072569;28;20202;-73
2022/07/21 07:03:07;;;;;;;0.77;0.77;;;;;;;20.48;96.90;100642.47;5071242;28;20217;-73
2022/07/21 07:05:32;;;;;;;0.43;0.43;;;;;;;20.42;96.91;100627.31;5068280;28;20218;-73
2022/07/21 07:07:57;;;;;;;0.80;0.57;;;;;;;20.49;96.56;100623.81;5070796;28;20208;-73
2022/07/21 07:10:23;;;;;;;6.13;0.77;;;;;;;20.57;95.95;100616.41;5072165;28;20619;-74
2022/07/21 07:12:48;;;;;;;0.50;0.50;;;;;;;20.70;95.26;100615.81;5072404;28;20637;-74
2022/07/21 07:15:14;;;;;;;0.17;0.13;;;;;;;20.75;94.68;100617.47;5072381;28;20171;-74
2022/07/21 07:17:39;;;;;;;1.03;0.93;;;;;;;20.84;94.37;100631.06;5071743;28;20593;-73
2022/07/21 07:20:06;;;;;;;0.97;0.93;;;;;;;20.75;94.08;100629.38;5071725;28;20175;-73
2022/07/21 07:22:32;;;;;;;1.30;1.00;;;;;;;20.75;94.62;100631.34;5072267;28;20205;-73
2022/07/21 07:24:57;;;;;;;0.67;0.67;;;;;;;20.71;93.92;100631.31;5071926;28;20172;-73
2022/07/21 07:27:23;;;;;;;1.33;1.23;;;;;;;20.68;94.53;100634.81;5070502;28;20215;-73
2022/07/21 07:29:48;;;;;;;0.20;0.20;;;;;;;20.68;94.94;100636.78;5071516;28;20654;-73
2022/07/21 07:32:14;;;;;;;0.00;0.00;;;;;;;20.72;94.71;100638.44;5071894;28;20659;-74
2022/07/21 07:34:39;;;;;;;0.97;0.97;;;;;;;20.75;94.53;100629.38;5070541;28;20623;-73
2022/07/21 07:37:04;;;;;;;1.23;1.23;;;;;;;20.78;94.34;100636.94;5071544;28;20185;-73
2022/07/21 07:39:30;;;;;;;0.63;0.63;;;;;;;20.82;94.00;100636.19;5071285;28;20175;-73
2022/07/21 07:41:55;;;;;;;0.70;0.70;;;;;;;20.85;93.01;100639.03;5071811;28;20513;-73
2022/07/21 07:44:21;;;;;;;2.20;0.83;;;;;;;20.82;92.47;100647.28;5072057;28;20590;-73
2022/07/21 07:46:46;;;;;;;0.93;0.93;;;;;;;20.76;92.25;100657.94;5071974;28;20747;-73
2022/07/21 07:49:12;;;;;;;0.50;0.50;;;;;;;20.73;92.13;100661.47;5071692;28;20167;-73
2022/07/21 07:51:37;;;;;;;0.27;0.27;;;;;;;20.65;91.54;100663.31;5070175;28;20278;-73
2022/07/21 07:54:03;;;;;;;0.23;0.23;;;;;;;20.63;92.40;100665.69;5069861;28;20657;-73
2022/07/21 07:56:29;;;;;;;0.80;0.80;;;;;;;20.59;93.04;100662.06;5071732;28;20585;-73
2022/07/21 07:58:55;;;;;;;0.53;0.53;;;;;;;20.46;93.72;100669.00;5069602;28;20176;-73
2022/07/21 08:01:20;;;;;;;1.07;0.97;;;;;;;20.39;94.19;100671.59;5066576;28;20193;-73
2022/07/21 08:03:45;;;;;;;0.50;0.50;;;;;;;20.31;94.30;100675.47;5051639;28;20297;-73
2022/07/21 08:06:11;;;;;;;0.20;0.20;;;;;;;20.22;94.47;100672.94;5051073;28;20595;-73
2022/07/21 08:08:36;;;;;;;0.97;0.80;;;;;;;20.20;94.86;100686.38;5050754;28;20258;-73
2022/07/21 08:11:02;;;;;;;0.17;0.17;;;;;;;20.12;97.10;100681.91;5050093;28;20332;-74
2022/07/21 08:13:27;;;;;;;0.30;0.30;;;;;;;20.04;98.99;100682.94;5051182;28;20285;-75
2022/07/21 08:15:53;;;;;;;0.23;0.23;;;;;;;19.94;100.00;100686.31;5064681;28;20191;-75
2022/07/21 08:18:18;;;;;;;0.40;0.40;;;;;;;19.86;100.00;100688.16;5070357;28;20237;-74
2022/07/21 08:20:45;;;;;;;0.30;0.30;;;;;;;19.80;100.00;100687.66;5069690;28;20543;-75
2022/07/21 08:23:12;;;;;;;0.10;0.10;;;;;;;19.79;100.00;100688.81;5069689;28;20210;-74
2022/07/21 08:25:37;;;;;;;0.40;0.40;;;;;;;19.79;100.00;100690.78;5070790;28;20586;-75
2022/07/21 08:28:03;;;;;;;0.50;0.50;;;;;;;19.85;100.00;100692.91;5070433;28;20175;-77
2022/07/21 08:30:29;;;;;;;0.50;0.50;;;;;;;19.89;100.00;100699.31;5070797;28;20175;-76
2022/07/21 08:32:54;;;;;;;0.30;0.30;;;;;;;20.00;100.00;100693.97;5070727;28;20261;-77
2022/07/21 08:35:20;;;;;;;0.10;0.10;;;;;;;20.14;100.00;100682.31;5069466;28;20171;-77
2022/07/21 08:38:00;;;;;;;0.30;0.30;;;;;;;20.26;98.23;100693.22;5070936;28;20242;-84
2022/07/21 08:40:27;;;;;;;0.03;0.03;;;;;;;20.34;96.67;100688.59;5069413;28;20174;-75
2022/07/21 08:42:53;;;;;;;0.10;0.10;;;;;;;20.46;96.92;100689.22;5070627;28;20677;-75
2022/07/21 08:45:19;;;;;;;0.10;0.10;;;;;;;20.64;96.61;100700.59;5070709;28;20543;-76
2022/07/21 08:47:45;;;;;;;0.33;0.33;;;;;;;20.79;95.94;100691.31;5069057;28;20182;-75
2022/07/21 08:50:10;;;;;;;0.10;0.10;;;;;;;20.91;94.54;100693.06;5069061;28;20186;-75
2022/07/21 08:52:35;;;;;;;0.90;0.70;;;;;;;20.91;91.87;100687.50;5069499;28;20199;-74
2022/07/21 08:55:02;;;;;;;0.53;0.53;;;;;;;20.86;91.71;100687.03;5069308;28;20178;-75
2022/07/21 08:57:28;;;;;;;0.10;0.10;;;;;;;20.93;92.42;100695.47;5069502;28;20825;-75
2022/07/21 08:59:53;;;;;;;4.13;1.20;;;;;;;21.03;91.36;100694.81;5070175;28;20175;-75
2022/07/21 09:02:27;;;;;;;0.60;0.60;;;;;;;20.93;89.63;100701.81;5070569;28;20648;-75
2022/07/21 09:04:53;;;;;;;0.13;0.13;;;;;;;21.01;89.99;100694.41;5072775;28;20173;-75
2022/07/21 09:07:19;;;;;;;0.73;0.27;;;;;;;21.08;89.02;100688.94;5074464;28;20200;-74
2022/07/21 09:09:55;;;;;;;0.90;0.90;;;;;;;21.19;86.94;100695.44;5073944;28;20230;-74
2022/07/21 09:12:21;;;;;;;2.10;2.00;;;;;;;21.34;86.24;100702.81;5073302;28;20269;-75
2022/07/21 09:14:46;;;;;;;0.37;0.37;;;;;;;21.43;85.75;100696.97;5074430;28;20726;-74
2022/07/21 09:17:12;;;;;;;0.43;0.23;;;;;;;21.49;85.65;100695.44;5073053;28;20171;-74
2022/07/21 09:19:38;;;;;;;0.67;0.67;;;;;;;21.45;84.73;100700.16;5074270;28;20196;-74
2022/07/21 09:22:06;;;;;;;2.30;2.07;;;;;;;21.48;83.80;100696.63;5072830;28;20540;-75
2022/07/21 09:24:38;;;;;;;1.53;1.43;;;;;;;21.50;83.32;100699.81;5074424;28;20187;-74
2022/07/21 09:27:09;;;;;;;1.63;1.60;;;;;;;;;;5073923;28;20242;-74
2022/07/21 09:29:58;;;;;;;0.40;0.40;;;;;;;21.53;81.80;100699.03;5072423;28;20245;-75
2022/07/21 09:32:30;;;;;;;1.80;1.70;;;;;;;21.55;81.34;100704.22;5072616;28;20267;-75
2022/07/21 09:35:04;;;;;;;1.03;1.03;;;;;;;21.60;80.67;100701.94;5073906;28;20204;-75
2022/07/21 09:37:30;;;;;;;1.53;1.43;;;;;;;21.66;80.03;100713.50;5072358;28;20160;-75
2022/07/21 09:39:58;;;;;;;1.23;1.10;;;;;;;21.50;77.76;100704.56;5073500;28;20180;-74
2022/07/21 09:42:29;;;;;;;5.87;2.07;;;;;;;21.48;77.37;100707.75;5073945;28;20223;-73
2022/07/21 09:45:02;;;;;;;1.67;1.57;;;;;;;21.47;77.63;100703.34;5072459;28;20171;-74
2022/07/21 09:47:29;;;;;;;1.60;1.50;;;;;;;21.44;77.94;100697.75;5073307;28;20297;-74
2022/07/21 09:49:56;;;;;;;9.63;1.80;;;;;;;21.52;78.58;100705.00;5071688;28;20186;-74
2022/07/21 09:52:21;;;;;;;1.40;1.30;;;;;;;21.60;78.20;100696.38;5072154;28;20269;-72
2022/07/21 09:54:46;;;;;;;0.57;0.50;;;;;;;21.71;77.87;100707.63;5072199;28;20662;-74
2022/07/21 09:57:13;;;;;;;0.77;0.70;;;;;;;21.88;75.41;100695.06;5072359;28;20230;-72
2022/07/21 09:59:44;;;;;;;0.80;0.80;;;;;;;22.05;75.02;100699.22;5070932;28;20255;-72
2022/07/21 10:02:21;;;;;;;0.20;0.20;;;;;;;22.28;74.48;100702.66;5072126;28;20186;-73
2022/07/21 10:05:02;;;;;;;0.30;0.00;;;;;;;22.41;73.12;100703.91;5072095;28;20409;-73
2022/07/21 10:07:27;;;;;;;0.00;0.00;;;;;;;22.46;71.34;100694.44;5071884;28;20267;-73
2022/07/21 10:09:54;;;;;;;0.53;0.53;;;;;;;22.89;71.52;100697.53;5072886;28;20182;-73
2022/07/21 10:12:21;;;;;;;1.70;1.60;;;;;;;23.26;68.79;100698.13;5073438;28;20186;-73
2022/07/21 10:14:46;;;;;;;1.10;1.03;;;;;;;23.19;67.48;100697.31;5072019;28;20170;-73
2022/07/21 10:17:16;;;;;;;0.87;0.87;;;;;;;23.47;67.46;100694.63;5071222;28;20193;-74
2022/07/21 10:20:21;;;;;;;1.77;1.33;;;;;;;23.81;65.01;100686.78;5072921;28;20183;-72
2022/07/21 10:23:11;;;;;;;1.63;1.53;;;;;;;23.54;64.45;100689.06;5071478;28;20248;-72
2022/07/21 10:25:37;;;;;;;0.00;0.00;;;;;;;23.18;65.39;100690.13;5071803;28;20252;-73
2022/07/21 10:28:22;;;;;;;0.47;0.47;;;;;;;23.46;65.35;100687.47;5072723;28;20258;-72
2022/07/21 10:30:53;;;;;;;2.67;0.97;;;;;;;23.71;64.53;100688.34;5072997;28;20646;-72
2022/07/21 10:33:20;;;;;;;1.63;1.53;;;;;;;23.44;64.34;100673.91;5073017;28;20181;-72
2022/07/21 10:35:51;;;;;;;0.97;0.97;;;;;;;23.52;64.12;100683.09;5071768;28;20666;-73
2022/07/21 10:38:36;;;;;;;0.63;0.63;;;;;;;23.69;63.78;100685.16;5071261;28;20228;-71
2022/07/21 10:41:05;;;;;;;3.37;3.07;;;;;;;23.80;63.23;100676.81;5070368;28;20178;-72
2022/07/21 10:43:30;;;;;;;1.33;1.23;;;;;;;23.50;63.26;100677.13;5069940;28;20691;-72
2022/07/21 10:45:58;;;;;;;1.77;1.67;;;;;;;23.50;63.95;100673.53;5072577;28;20198;-72
2022/07/21 10:48:47;;;;;;;1.13;1.13;;;;;;;23.51;63.71;100672.34;5072332;28;20178;-73
2022/07/21 10:51:14;;;;;;;1.73;1.63;;;;;;;23.37;64.10;100667.50;5072484;28;20218;-71
2022/07/21 10:53:40;;;;;;;0.50;0.50;;;;;;;23.21;64.34;100665.06;5071136;28;20182;-73
2022/07/21 10:56:07;;;;;;;0.10;0.10;;;;;;;23.29;65.55;100661.13;5071223;28;20178;-73
2022/07/21 10:58:40;;;;;;;0.50;0.50;;;;;;;23.41;66.04;100659.94;5071257;28;20186;-75
2022/07/21 11:01:14;;;;;;;0.00;0.00;;;;;;;23.62;65.48;100657.25;5072472;28;20175;-73
2022/07/21 11:03:41;;;;;;;2.00;0.53;;;;;;;23.74;65.83;100654.09;5072324;28;20177;-74
2022/07/21 11:06:06;;;;;;;1.90;1.80;;;;;;;24.15;65.02;100648.13;5072285;28;20206;-75
2022/07/21 11:08:34;;;;;;;0.47;0.47;;;;;;;24.26;64.20;100651.72;5071892;28;20177;-75
2022/07/21 11:11:16;;;;;;;0.27;0.27;;;;;;;23.93;61.45;100641.75;5072155;28;20721;-75
2022/07/21 11:14:13;;;;;;;1.80;1.70;;;;;;;23.67;63.28;100651.28;5070846;28;20171;-74
2022/07/21 11:16:42;;;;;;;1.27;1.27;;;;;;;23.33;64.15;100649.97;5070551;28;20820;-75
2022/07/21 11:19:52;;;;;;;0.40;0.40;;;;;;;23.22;65.51;100655.50;5070459;28;20187;-76
2022/07/21 11:22:23;;;;;;;1.27;1.20;;;;;;;23.32;65.75;100657.53;4990067;28;20188;-75
2022/07/21 11:24:57;;;;;;;0.30;0.30;;;;;;;23.46;66.39;100656.78;5006345;28;20192;-75
2022/07/21 11:27:25;;;;;;;0.83;0.83;;;;;;;23.44;66.69;100662.75;5037610;28;20682;-75